Time;durP1;ratioP1;P1;durP2;ratioP2;P2;SDS_P1;SDS_P2;PMS_P1;PMS_P2;Temp;Humidity;BMP_temperature;BMP_pressure;BME280_temperature;BME280_humidity;BME280_pressure;Samples;Min_cycle;Max_cycle;Signal;HPM_P1;HPM_P2
2023/07/06 00:01:21;;;;;;;3.50;2.00;;;;;;;17.39;66.89;98228.31;4993644;28;20191;-73
2023/07/06 00:03:48;;;;;;;3.27;2.10;;;;;;;17.39;67.17;98226.47;4993235;28;20213;-73
2023/07/06 00:06:16;;;;;;;3.23;2.00;;;;;;;17.38;68.07;98227.47;4993508;28;20769;-73
2023/07/06 00:08:42;;;;;;;2.53;2.20;;;;;;;17.42;67.37;98223.25;4993906;28;20667;-73
2023/07/06 00:11:09;;;;;;;2.80;2.10;;;;;;;17.34;67.55;98215.66;4993845;28;20674;-73
2023/07/06 00:13:37;;;;;;;2.20;2.00;;;;;;;17.30;66.73;98225.28;4994105;28;20215;-73
2023/07/06 00:16:03;;;;;;;3.63;2.30;;;;;;;17.33;65.97;98229.34;4993767;28;20762;-73
2023/07/06 00:18:30;;;;;;;2.87;2.13;;;;;;;17.27;67.78;98222.28;4993990;28;20211;-73
2023/07/06 00:20:57;;;;;;;2.53;1.97;;;;;;;17.29;69.09;98214.78;4993969;28;20242;-73
2023/07/06 00:23:24;;;;;;;2.63;2.17;;;;;;;17.22;66.66;98223.06;4993957;28;20211;-73
2023/07/06 00:25:51;;;;;;;2.47;2.20;;;;;;;17.07;68.58;98220.28;4993442;28;20223;-73
2023/07/06 00:28:24;;;;;;;3.03;2.37;;;;;;;16.98;69.52;98219.13;4994083;28;20203;-73
2023/07/06 00:30:57;;;;;;;3.17;2.07;;;;;;;16.96;70.37;98223.13;4994071;28;20196;-73
2023/07/06 00:33:25;;;;;;;3.10;2.00;;;;;;;17.00;70.45;98224.22;4993162;28;20219;-73
2023/07/06 00:35:52;;;;;;;3.20;2.00;;;;;;;17.00;69.54;98226.91;4993508;28;20706;-73
2023/07/06 00:38:21;;;;;;;2.47;2.13;;;;;;;17.03;68.39;98221.84;4994043;28;20192;-73
2023/07/06 00:40:55;;;;;;;2.83;2.00;;;;;;;17.05;67.79;98232.34;4993820;28;20569;-73
2023/07/06 00:43:24;;;;;;;3.47;1.87;;;;;;;17.06;69.12;98220.53;4993980;28;20253;-73
2023/07/06 00:45:59;;;;;;;4.27;2.17;;;;;;;16.99;69.63;98217.22;4993829;28;20235;-73
2023/07/06 00:48:32;;;;;;;4.70;2.23;;;;;;;17.10;68.25;98227.81;4993521;28;20253;-73
2023/07/06 00:51:05;;;;;;;2.90;2.10;;;;;;;17.06;70.06;98223.22;4993861;28;20199;-73
2023/07/06 00:53:39;;;;;;;3.07;2.10;;;;;;;17.09;70.37;98223.50;4993805;28;20219;-73
2023/07/06 00:56:08;;;;;;;2.93;2.50;;;;;;;17.07;70.00;98224.81;4992694;28;20231;-73
2023/07/06 00:58:41;;;;;;;2.77;1.87;;;;;;;17.16;69.25;98226.78;4993760;28;20211;-73
2023/07/06 01:01:10;;;;;;;4.37;1.87;;;;;;;17.10;71.43;98224.31;4992693;28;20191;-73
2023/07/06 01:03:44;;;;;;;2.83;2.20;;;;;;;17.07;70.35;98224.81;4993755;28;20567;-73
2023/07/06 01:06:15;;;;;;;2.40;2.20;;;;;;;17.02;70.54;98219.41;4993726;28;20310;-73
2023/07/06 01:08:41;;;;;;;4.57;2.10;;;;;;;16.93;71.67;98224.44;4993766;28;20203;-73
2023/07/06 01:11:10;;;;;;;4.13;2.40;;;;;;;16.87;72.51;98224.66;4993416;28;20556;-73
2023/07/06 01:13:37;;;;;;;3.30;2.37;;;;;;;16.83;71.34;98227.03;4993322;28;20254;-73
2023/07/06 01:16:18;;;;;;;3.40;2.33;;;;;;;16.79;71.06;98220.53;4994573;28;20649;-73
2023/07/06 01:19:24;;;;;;;4.10;2.47;;;;;;;16.74;71.07;98212.44;4997153;28;20195;-73
2023/07/06 01:22:13;;;;;;;6.73;2.90;;;;;;;16.74;71.26;98217.81;4996502;28;20207;-72
2023/07/06 01:25:00;;;;;;;3.23;2.70;;;;;;;16.74;71.66;98217.81;4997044;28;20207;-72
2023/07/06 01:27:36;;;;;;;3.47;2.60;;;;;;;16.58;72.62;98216.03;4995778;28;20227;-72
2023/07/06 01:30:28;;;;;;;4.37;2.40;;;;;;;16.51;73.82;98206.56;4996967;28;20191;-72
2023/07/06 01:33:04;;;;;;;4.40;3.00;;;;;;;16.56;73.00;98210.09;4997004;28;20222;-72
2023/07/06 01:36:08;;;;;;;4.20;2.77;;;;;;;16.49;74.16;98208.69;4996748;28;20195;-72
2023/07/06 01:38:34;;;;;;;5.47;2.67;;;;;;;16.39;75.25;98200.50;4987875;28;20245;-72
2023/07/06 01:41:01;;;;;;;2.93;2.20;;;;;;;16.36;75.19;98199.13;4996949;28;20301;-72
2023/07/06 01:43:28;;;;;;;4.13;3.10;;;;;;;16.26;77.45;98208.94;4996693;28;20210;-72
2023/07/06 01:45:55;;;;;;;3.30;2.40;;;;;;;16.19;77.33;98203.75;4996557;28;20234;-72
2023/07/06 01:48:24;;;;;;;4.43;2.70;;;;;;;16.13;78.08;98199.41;4996637;28;20214;-72
2023/07/06 01:51:13;;;;;;;4.50;2.90;;;;;;;16.03;79.05;98204.66;4996234;28;20219;-72
2023/07/06 01:53:45;;;;;;;4.27;2.70;;;;;;;16.00;79.91;98207.84;4996429;28;20233;-72
2023/07/06 01:56:44;;;;;;;4.60;2.93;;;;;;;15.94;83.61;98211.53;4995283;28;20585;-72
2023/07/06 01:59:18;;;;;;;4.57;2.77;;;;;;;15.88;84.00;98212.50;4996035;28;20203;-72
2023/07/06 02:01:59;;;;;;;5.37;2.73;;;;;;;15.90;84.61;98204.22;4996393;28;20254;-72
2023/07/06 02:04:27;;;;;;;3.23;2.77;;;;;;;15.89;83.72;98211.47;4996355;28;20238;-72
2023/07/06 02:06:54;;;;;;;5.40;3.13;;;;;;;15.87;83.16;98210.88;4994982;28;20227;-72
2023/07/06 02:09:21;;;;;;;5.23;3.10;;;;;;;15.86;84.34;98208.44;4996243;28;20203;-72
2023/07/06 02:11:47;;;;;;;4.87;3.00;;;;;;;15.86;84.05;98201.22;4996142;28;20725;-72
2023/07/06 02:14:13;;;;;;;4.43;2.60;;;;;;;15.87;83.96;98204.72;4996383;28;20211;-72
2023/07/06 02:16:40;;;;;;;3.87;2.77;;;;;;;15.87;84.01;98210.88;4996059;28;20234;-72
2023/07/06 02:19:06;;;;;;;4.23;2.70;;;;;;;15.81;85.02;98206.53;4996028;28;20213;-72
2023/07/06 02:21:33;;;;;;;4.93;2.93;;;;;;;15.85;84.59;98207.66;4996152;28;20207;-72
2023/07/06 02:24:00;;;;;;;4.07;2.80;;;;;;;15.76;84.79;98206.47;4996014;28;20219;-73
2023/07/06 02:26:26;;;;;;;5.30;3.10;;;;;;;15.71;84.99;98217.13;4995753;28;20223;-73
2023/07/06 02:28:53;;;;;;;4.30;2.67;;;;;;;15.71;84.72;98217.13;4995101;28;20208;-73
2023/07/06 02:31:19;;;;;;;4.30;2.40;;;;;;;15.65;84.55;98217.28;4995811;28;20281;-73
2023/07/06 02:33:46;;;;;;;4.37;2.70;;;;;;;15.60;86.91;98209.97;4995703;28;20632;-73
2023/07/06 02:36:13;;;;;;;3.23;2.67;;;;;;;15.57;84.27;98215.84;4995694;28;20282;-73
2023/07/06 02:38:39;;;;;;;3.17;2.43;;;;;;;15.58;85.10;98206.75;4995393;28;20203;-73
2023/07/06 02:41:05;;;;;;;3.97;2.87;;;;;;;15.50;88.05;98212.50;4995514;28;20258;-73
2023/07/06 02:43:32;;;;;;;4.17;2.67;;;;;;;15.40;87.51;98214.22;4995552;28;20214;-73
2023/07/06 02:45:59;;;;;;;4.40;2.93;;;;;;;15.32;88.97;98215.44;4995451;28;20227;-73
2023/07/06 02:48:26;;;;;;;4.10;2.90;;;;;;;15.33;89.44;98210.91;4995450;28;20203;-73
2023/07/06 02:50:52;;;;;;;5.77;2.80;;;;;;;15.31;91.52;98205.78;4995451;28;20207;-73
2023/07/06 02:53:20;;;;;;;3.70;2.87;;;;;;;15.30;90.83;98209.53;4995277;28;20227;-73
2023/07/06 02:55:49;;;;;;;3.20;2.90;;;;;;;15.36;92.80;98205.06;4994816;28;20694;-73
2023/07/06 02:58:16;;;;;;;3.10;2.80;;;;;;;15.37;92.14;98206.69;4995206;28;20211;-73
2023/07/06 03:00:43;;;;;;;4.40;2.60;;;;;;;15.35;89.41;98200.75;4995177;28;20214;-73
2023/07/06 03:03:09;;;;;;;3.60;3.03;;;;;;;15.35;92.07;98204.25;4994924;28;20199;-73
2023/07/06 03:05:36;;;;;;;4.43;2.80;;;;;;;15.43;88.92;98203.81;4994967;28;20242;-73
2023/07/06 03:08:06;;;;;;;3.07;2.63;;;;;;;15.36;90.34;98208.56;4995043;28;20539;-73
2023/07/06 03:10:33;;;;;;;3.30;2.70;;;;;;;15.33;90.01;98197.50;4994972;28;20207;-73
2023/07/06 03:12:59;;;;;;;4.40;2.70;;;;;;;15.34;88.61;98194.59;4994843;28;20227;-73
2023/07/06 03:15:26;;;;;;;3.63;2.63;;;;;;;15.28;89.23;98200.91;4995012;28;20208;-73
2023/07/06 03:17:52;;;;;;;2.87;2.50;;;;;;;15.26;89.37;98202.19;4994649;28;20231;-73
2023/07/06 03:20:20;;;;;;;3.80;2.67;;;;;;;15.25;90.10;98201.38;4994485;28;20212;-73
2023/07/06 03:22:51;;;;;;;5.07;3.10;;;;;;;15.19;90.72;98202.38;4994994;28;20204;-73
2023/07/06 03:25:22;;;;;;;4.97;2.87;;;;;;;15.10;91.81;98198.47;4994829;28;20206;-73
2023/07/06 03:27:49;;;;;;;4.60;2.67;;;;;;;15.03;93.21;98203.19;4994657;28;20346;-73
2023/07/06 03:30:19;;;;;;;2.83;2.30;;;;;;;15.04;92.39;98198.63;4994621;28;20207;-73
2023/07/06 03:32:45;;;;;;;5.17;3.00;;;;;;;15.01;93.38;98204.50;4995523;28;20233;-73
2023/07/06 03:35:13;;;;;;;4.97;3.10;;;;;;;14.98;92.42;98203.13;4994296;28;20207;-73
2023/07/06 03:37:41;;;;;;;5.97;2.90;;;;;;;14.99;92.50;98203.91;4994037;28;20242;-73
2023/07/06 03:40:10;;;;;;;4.43;2.77;;;;;;;14.97;93.08;98214.84;4994058;28;20211;-73
2023/07/06 03:42:39;;;;;;;4.53;3.13;;;;;;;14.87;95.01;98209.34;4993560;28;20225;-73
2023/07/06 03:45:06;;;;;;;3.57;2.80;;;;;;;14.81;96.17;98210.31;4994150;28;20262;-73
2023/07/06 03:47:33;;;;;;;3.93;3.17;;;;;;;14.80;96.42;98203.34;4993885;28;20734;-73
2023/07/06 03:50:00;;;;;;;5.33;2.80;;;;;;;14.84;95.12;98207.13;4994676;28;20238;-72
2023/07/06 03:52:27;;;;;;;6.17;2.97;;;;;;;14.95;93.63;98202.78;4994049;28;20227;-72
2023/07/06 03:54:54;;;;;;;6.13;2.70;;;;;;;14.91;93.77;98207.81;4993990;28;20547;-72
2023/07/06 03:57:22;;;;;;;2.80;2.60;;;;;;;14.99;93.25;98202.06;4993681;28;20707;-72
2023/07/06 03:59:48;;;;;;;3.93;2.90;;;;;;;14.97;93.08;98203.34;4994279;28;20285;-72
2023/07/06 04:02:15;;;;;;;6.27;2.77;;;;;;;14.93;93.83;98203.00;4993630;28;20586;-72
2023/07/06 04:04:42;;;;;;;3.83;2.70;;;;;;;14.97;95.03;98198.78;4993930;28;20215;-73
2023/07/06 04:07:10;;;;;;;4.53;2.87;;;;;;;15.00;95.40;98202.84;4993601;28;20633;-72
2023/07/06 04:09:38;;;;;;;3.10;2.80;;;;;;;14.95;96.74;98203.59;4995172;28;20246;-77
2023/07/06 04:12:07;;;;;;;4.75;2.70;;;;;;;14.90;97.53;98197.34;4997259;28;20203;-77
2023/07/06 04:14:34;;;;;;;4.27;3.10;;;;;;;14.96;99.00;98205.22;4993193;28;20298;-77
2023/07/06 04:17:01;;;;;;;5.13;3.50;;;;;;;14.98;99.13;98205.78;4994299;28;20227;-77
2023/07/06 04:19:28;;;;;;;5.53;3.53;;;;;;;15.02;99.67;98208.78;4993976;28;20211;-77
2023/07/06 04:21:55;;;;;;;5.13;3.40;;;;;;;15.04;99.68;98215.53;4993541;28;20215;-77
2023/07/06 04:24:21;;;;;;;5.43;3.50;;;;;;;15.08;98.54;98216.66;4993798;28;20290;-77
2023/07/06 04:26:51;;;;;;;4.73;3.60;;;;;;;15.13;97.33;98219.41;4991954;28;20230;-76
2023/07/06 04:29:17;;;;;;;4.63;3.20;;;;;;;15.19;96.71;98213.06;4993812;28;20616;-77
2023/07/06 04:31:44;;;;;;;6.67;3.27;;;;;;;15.25;97.27;98212.09;4992993;28;20294;-77
2023/07/06 04:34:10;;;;;;;7.70;3.30;;;;;;;15.22;97.08;98217.97;4998804;28;20249;-77
2023/07/06 04:36:39;;;;;;;4.50;2.97;;;;;;;15.30;96.62;98214.06;4991718;28;20223;-77
2023/07/06 04:39:08;;;;;;;5.93;3.30;;;;;;;15.35;96.39;98222.19;4993852;28;20203;-76
2023/07/06 04:41:37;;;;;;;6.47;3.70;;;;;;;15.39;95.04;98210.75;4993128;28;20562;-77
2023/07/06 04:44:03;;;;;;;5.13;2.90;;;;;;;15.39;94.15;98212.63;4993007;28;20652;-77
2023/07/06 04:46:29;;;;;;;4.00;3.20;;;;;;;15.45;93.75;98216.97;4988586;28;20246;-76
2023/07/06 04:48:56;;;;;;;3.33;3.00;;;;;;;15.51;91.88;98218.69;4991500;28;20218;-77
2023/07/06 04:51:22;;;;;;;4.43;2.90;;;;;;;15.54;92.52;98227.03;4993868;28;20226;-76
2023/07/06 04:53:49;;;;;;;4.47;3.23;;;;;;;15.61;91.70;98229.56;4996783;28;20231;-77
2023/07/06 04:56:16;;;;;;;4.30;2.90;;;;;;;15.67;92.95;98226.69;4996358;28;20265;-77
2023/07/06 04:58:45;;;;;;;4.03;2.90;;;;;;;15.74;92.33;98226.53;4997292;28;20291;-77
2023/07/06 05:01:11;;;;;;;5.50;3.10;;;;;;;15.85;90.70;98233.63;4996947;28;20295;-77
2023/07/06 05:03:38;;;;;;;3.30;2.93;;;;;;;15.83;91.03;98231.19;4997108;28;20203;-77
2023/07/06 05:06:07;;;;;;;4.23;3.10;;;;;;;15.86;89.60;98232.56;4996676;28;20254;-77
2023/07/06 05:08:34;;;;;;;4.40;2.80;;;;;;;15.97;89.48;98232.44;4996985;28;20667;-77
2023/07/06 05:11:03;;;;;;;7.00;3.60;;;;;;;16.14;88.70;98235.06;4996524;28;20207;-77
2023/07/06 05:13:30;;;;;;;6.63;3.20;;;;;;;16.40;85.85;98245.09;4996745;28;20582;-77
2023/07/06 05:15:56;;;;;;;4.77;3.17;;;;;;;16.92;81.59;98244.28;4996952;28;20249;-77
2023/07/06 05:18:22;;;;;;;3.77;2.90;;;;;;;16.95;80.70;98249.16;4996820;28;20207;-77
2023/07/06 05:20:50;;;;;;;5.00;3.20;;;;;;;17.35;77.78;98246.00;4996984;28;20210;-77
2023/07/06 05:23:21;;;;;;;3.97;3.07;;;;;;;17.71;76.41;98240.66;4996626;28;20204;-77
2023/07/06 05:25:52;;;;;;;4.50;3.07;;;;;;;18.35;71.63;98244.78;4996413;28;20211;-77
2023/07/06 05:28:20;;;;;;;4.43;3.03;;;;;;;18.65;69.72;98244.06;4996663;28;20195;-77
2023/07/06 05:30:47;;;;;;;4.47;3.20;;;;;;;18.86;69.79;98243.81;4996193;28;20667;-77
2023/07/06 05:33:14;;;;;;;5.03;3.30;;;;;;;18.65;69.62;98247.56;4996289;28;20227;-77
2023/07/06 05:35:47;;;;;;;7.50;3.10;;;;;;;18.25;70.77;98252.78;4996449;28;20214;-77
2023/07/06 05:38:13;;;;;;;6.13;3.20;;;;;;;18.21;72.52;98250.88;4995845;28;20211;-77
2023/07/06 05:40:41;;;;;;;3.90;3.20;;;;;;;18.35;69.96;98252.03;4996313;28;20587;-77
2023/07/06 05:43:09;;;;;;;5.27;3.20;;;;;;;17.99;73.17;98258.28;4996028;28;20667;-77
2023/07/06 05:45:35;;;;;;;6.27;3.10;;;;;;;17.85;72.34;98252.56;4995970;28;20211;-77
2023/07/06 05:48:02;;;;;;;7.03;3.47;;;;;;;17.92;72.75;98258.50;4995536;28;20213;-77
2023/07/06 05:50:29;;;;;;;9.00;3.37;;;;;;;17.71;73.86;98262.16;4996423;28;20207;-77
2023/07/06 05:52:55;;;;;;;5.53;3.13;;;;;;;17.49;72.42;98266.84;4995416;28;20230;-77
2023/07/06 05:55:23;;;;;;;11.67;4.13;;;;;;;17.68;73.47;98272.63;4995983;28;20243;-77
2023/07/06 05:57:50;;;;;;;8.73;3.90;;;;;;;17.74;74.34;98272.38;4996042;28;20230;-77
2023/07/06 06:00:16;;;;;;;4.80;3.90;;;;;;;18.05;73.48;98270.72;4995410;28;20298;-77
2023/07/06 06:02:44;;;;;;;9.10;4.10;;;;;;;17.92;72.04;98279.25;4994455;28;20218;-73
2023/07/06 06:05:14;;;;;;;10.73;3.90;;;;;;;17.88;73.08;98275.44;4995643;28;20215;-73
2023/07/06 06:07:43;;;;;;;7.87;3.67;;;;;;;17.97;73.47;98276.59;4995440;28;20255;-73
2023/07/06 06:10:11;;;;;;;8.60;3.90;;;;;;;17.91;73.53;98278.44;4994990;28;20553;-72
2023/07/06 06:12:38;;;;;;;11.33;4.03;;;;;;;18.05;71.22;98284.97;4995759;28;20293;-72
2023/07/06 06:15:07;;;;;;;6.87;3.37;;;;;;;18.08;74.48;98284.44;4995295;28;20214;-72
2023/07/06 06:17:36;;;;;;;6.93;3.90;;;;;;;18.36;72.83;98284.06;4995088;28;20231;-72
2023/07/06 06:20:03;;;;;;;6.63;3.90;;;;;;;18.16;70.90;98286.66;4995413;28;20242;-72
2023/07/06 06:22:30;;;;;;;8.77;3.60;;;;;;;18.08;71.50;98289.81;4995504;28;20298;-72
2023/07/06 06:24:56;;;;;;;8.10;3.50;;;;;;;18.19;71.60;98291.50;4995589;28;20214;-72
2023/07/06 06:27:22;;;;;;;6.10;3.50;;;;;;;18.32;70.97;98291.03;4995444;28;20234;-73
2023/07/06 06:29:49;;;;;;;6.73;3.73;;;;;;;18.53;70.68;98287.38;4995145;28;20203;-73
2023/07/06 06:32:15;;;;;;;8.23;3.67;;;;;;;18.50;69.32;98282.50;4993712;28;20203;-73
2023/07/06 06:34:42;;;;;;;8.47;3.27;;;;;;;18.50;67.62;98290.59;4994038;28;20589;-73
2023/07/06 06:37:09;;;;;;;5.93;3.37;;;;;;;18.44;65.40;98288.13;4993946;28;20245;-73
2023/07/06 06:39:35;;;;;;;7.37;3.63;;;;;;;18.38;65.14;98289.19;4993989;28;20218;-73
2023/07/06 06:42:02;;;;;;;3.10;2.80;;;;;;;18.68;62.92;98292.81;4994220;28;20203;-73
2023/07/06 06:44:32;;;;;;;4.33;2.80;;;;;;;18.79;63.27;98288.25;4994357;28;20214;-73
2023/07/06 06:47:01;;;;;;;5.67;2.97;;;;;;;18.78;64.51;98289.34;4994670;28;20714;-73
2023/07/06 06:49:28;;;;;;;3.73;2.57;;;;;;;19.02;62.63;98279.69;4995118;28;20238;-73
2023/07/06 06:51:54;;;;;;;5.17;2.40;;;;;;;19.01;58.73;98286.94;4994607;28;20301;-73
2023/07/06 06:54:21;;;;;;;5.80;2.70;;;;;;;18.63;61.30;98284.72;4995211;28;20235;-73
2023/07/06 06:56:47;;;;;;;4.53;2.93;;;;;;;18.89;59.37;98283.72;4994286;28;20235;-73
2023/07/06 06:59:13;;;;;;;4.17;2.70;;;;;;;18.96;59.71;98292.34;4994517;28;20211;-73
2023/07/06 07:01:41;;;;;;;5.30;3.23;;;;;;;18.90;59.21;98290.72;4994645;28;20211;-73
2023/07/06 07:04:09;;;;;;;4.07;2.50;;;;;;;19.03;60.21;98286.69;4994869;28;20215;-73
2023/07/06 07:06:38;;;;;;;6.00;2.30;;;;;;;19.21;58.99;98281.59;4994556;28;20231;-72
2023/07/06 07:09:09;;;;;;;4.20;2.33;;;;;;;19.26;59.17;98280.81;4994890;28;20257;-73
2023/07/06 07:11:36;;;;;;;4.73;2.20;;;;;;;19.24;56.68;98275.72;4994528;28;20275;-73
2023/07/06 07:14:02;;;;;;;3.10;2.20;;;;;;;19.00;57.43;98282.66;4994431;28;20231;-73
2023/07/06 07:16:29;;;;;;;2.77;2.20;;;;;;;18.93;56.47;98290.19;4994021;28;20223;-73
2023/07/06 07:18:56;;;;;;;3.70;2.00;;;;;;;18.96;56.87;98292.34;4994134;28;20664;-73
2023/07/06 07:21:22;;;;;;;4.47;2.20;;;;;;;19.31;58.56;98276.25;4994933;28;20208;-73
2023/07/06 07:23:50;;;;;;;5.23;3.03;;;;;;;19.54;57.90;98277.59;4994444;28;20573;-73
2023/07/06 07:26:19;;;;;;;5.70;2.20;;;;;;;19.76;56.48;98286.19;4994381;28;20227;-73
2023/07/06 07:28:48;;;;;;;4.23;2.33;;;;;;;20.03;55.62;98286.69;4994043;28;20211;-73
2023/07/06 07:31:17;;;;;;;4.57;1.90;;;;;;;20.09;55.12;98276.72;4994147;28;20207;-73
2023/07/06 07:33:44;;;;;;;4.50;2.33;;;;;;;20.03;55.70;98275.09;4994312;28;20219;-73
2023/07/06 07:36:12;;;;;;;3.27;2.43;;;;;;;20.20;55.00;98276.41;4994464;28;20630;-73
2023/07/06 07:38:39;;;;;;;3.47;1.97;;;;;;;20.45;53.70;98272.81;4994272;28;20211;-73
2023/07/06 07:41:08;;;;;;;4.10;2.27;;;;;;;20.37;54.60;98281.50;4993881;28;20663;-73
2023/07/06 07:43:41;;;;;;;4.70;2.13;;;;;;;20.62;52.68;98276.78;4993870;28;20690;-73
2023/07/06 07:46:10;;;;;;;4.87;2.17;;;;;;;20.32;51.86;98282.34;4993398;28;20834;-73
2023/07/06 07:48:39;;;;;;;4.20;2.10;;;;;;;19.53;53.94;98268.69;4994080;28;20207;-73
2023/07/06 07:51:11;;;;;;;3.27;2.00;;;;;;;19.76;54.02;98280.81;4994834;28;20203;-73
2023/07/06 07:53:39;;;;;;;2.53;1.90;;;;;;;20.14;52.86;98279.41;4994168;28;20215;-73
2023/07/06 07:56:06;;;;;;;2.73;1.90;;;;;;;20.26;52.84;98277.22;4993503;28;20231;-73
2023/07/06 07:58:34;;;;;;;4.47;1.80;;;;;;;20.21;51.79;98274.53;4994108;28;20215;-73
2023/07/06 08:01:02;;;;;;;4.67;1.80;;;;;;;20.48;51.32;98272.28;4993743;28;20211;-73
2023/07/06 08:03:29;;;;;;;3.27;1.90;;;;;;;20.26;49.49;98279.94;4993970;28;20205;-73
2023/07/06 08:05:56;;;;;;;3.30;2.17;;;;;;;20.31;49.62;98277.19;4993630;28;20711;-73
2023/07/06 08:08:23;;;;;;;4.03;1.87;;;;;;;20.59;48.94;98274.66;4993715;28;20675;-72
2023/07/06 08:10:51;;;;;;;3.47;1.90;;;;;;;20.60;49.22;98265.47;4993747;28;20215;-72
2023/07/06 08:13:18;;;;;;;4.47;2.07;;;;;;;20.93;47.81;98263.97;4993644;28;20211;-72
2023/07/06 08:15:45;;;;;;;2.93;2.20;;;;;;;21.11;48.96;98261.41;4993782;28;20230;-72
2023/07/06 08:18:12;;;;;;;4.33;1.90;;;;;;;21.29;46.74;98268.03;4993523;28;20211;-72
2023/07/06 08:20:38;;;;;;;3.23;2.00;;;;;;;21.07;46.62;98264.97;4993850;28;20211;-72
2023/07/06 08:23:12;;;;;;;2.77;1.97;;;;;;;20.64;47.90;98263.00;4993566;28;20693;-72
2023/07/06 08:25:41;;;;;;;5.13;1.70;;;;;;;20.47;48.18;98270.63;4994796;28;20282;-72
2023/07/06 08:28:10;;;;;;;2.90;2.23;;;;;;;20.39;48.81;98271.25;4997483;28;20605;-73
2023/07/06 08:30:40;;;;;;;3.97;2.10;;;;;;;20.76;47.83;98258.09;4997880;28;20211;-73
2023/07/06 08:33:07;;;;;;;4.43;2.07;;;;;;;20.81;47.28;98266.16;4997336;28;20298;-73
2023/07/06 08:35:34;;;;;;;3.20;2.27;;;;;;;20.88;47.29;98266.66;4997388;28;20313;-73
2023/07/06 08:38:05;;;;;;;3.50;2.20;;;;;;;20.79;47.28;98271.06;4997329;28;20223;-73
2023/07/06 08:40:34;;;;;;;4.60;2.27;;;;;;;21.05;47.65;98272.53;4997531;28;20202;-73
2023/07/06 08:43:03;;;;;;;3.33;2.23;;;;;;;21.06;47.21;98269.53;4997381;28;20211;-73
2023/07/06 08:45:40;;;;;;;3.20;1.93;;;;;;;20.85;47.12;98264.53;4996751;28;20295;-73
2023/07/06 08:48:12;;;;;;;3.13;2.10;;;;;;;20.96;46.66;98257.97;4997620;28;20191;-73
2023/07/06 08:50:39;;;;;;;3.60;2.30;;;;;;;21.01;46.51;98260.66;4996412;28;20195;-72
2023/07/06 08:53:09;;;;;;;3.27;2.20;;;;;;;21.15;47.04;98254.34;4997123;28;20213;-72
2023/07/06 08:55:37;;;;;;;3.13;2.00;;;;;;;21.65;45.08;98259.31;4997037;28;20219;-72
2023/07/06 08:58:04;;;;;;;2.87;2.53;;;;;;;21.40;45.08;98256.84;4996885;28;20786;-72
2023/07/06 09:00:31;;;;;;;3.57;2.50;;;;;;;20.99;45.41;98255.56;4997250;28;20207;-72
2023/07/06 09:03:09;;;;;;;3.73;2.37;;;;;;;21.63;46.69;98249.88;4997298;28;20239;-72
2023/07/06 09:05:39;;;;;;;4.50;2.53;;;;;;;21.18;45.17;98258.38;4997154;28;20209;-72
2023/07/06 09:08:06;;;;;;;3.93;2.23;;;;;;;21.15;45.16;98251.63;4996964;28;20211;-72
2023/07/06 09:10:32;;;;;;;3.63;1.90;;;;;;;21.44;46.36;98244.34;4996804;28;20578;-72
2023/07/06 09:13:26;;;;;;;3.20;2.47;;;;;;;21.63;44.59;98244.47;4996360;28;20730;-72
2023/07/06 09:16:01;;;;;;;3.50;2.00;;;;;;;21.26;44.38;98245.03;4996806;28;20223;-72
2023/07/06 09:18:30;;;;;;;3.83;2.40;;;;;;;20.98;45.20;98245.81;4996963;28;20199;-72
2023/07/06 09:21:02;;;;;;;4.33;2.50;;;;;;;21.00;46.00;98245.53;4996766;28;20203;-72
2023/07/06 09:23:29;;;;;;;3.57;2.23;;;;;;;21.15;47.18;98235.41;4996775;28;20218;-72
2023/07/06 09:25:56;;;;;;;2.43;2.07;;;;;;;21.53;47.64;98237.25;4996726;28;20230;-72
2023/07/06 09:28:28;;;;;;;3.37;2.33;;;;;;;21.65;45.17;98239.56;4996643;28;20211;-72
2023/07/06 09:31:24;;;;;;;4.23;2.27;;;;;;;21.41;44.28;98236.00;4996459;28;20195;-72
2023/07/06 09:33:53;;;;;;;3.67;2.10;;;;;;;21.75;45.57;98239.53;4995631;28;20259;-72
2023/07/06 09:36:25;;;;;;;4.17;2.20;;;;;;;22.10;45.36;98239.94;4996355;28;20227;-72
2023/07/06 09:38:52;;;;;;;3.23;2.30;;;;;;;22.10;44.70;98252.66;4996711;28;20215;-72
2023/07/06 09:41:25;;;;;;;3.13;2.17;;;;;;;21.68;45.14;98250.66;4996649;28;20640;-72
2023/07/06 09:43:58;;;;;;;4.77;2.30;;;;;;;21.69;46.28;98244.16;4995966;28;20207;-72
2023/07/06 09:46:33;;;;;;;3.53;2.10;;;;;;;21.94;45.76;98248.53;4994884;28;20690;-72
2023/07/06 09:49:00;;;;;;;6.30;2.50;;;;;;;22.14;43.93;98254.53;4996526;28;20191;-72
2023/07/06 09:51:36;;;;;;;4.17;2.30;;;;;;;22.39;43.08;98245.28;4996607;28;20207;-72
2023/07/06 09:54:17;;;;;;;2.43;2.13;;;;;;;22.20;43.41;98247.16;4996091;28;20243;-72
2023/07/06 09:56:43;;;;;;;4.30;2.33;;;;;;;21.85;43.06;98255.66;4995195;28;20254;-72
2023/07/06 09:59:11;;;;;;;3.90;2.10;;;;;;;21.67;44.93;98248.22;4995921;28;20207;-72
2023/07/06 10:01:49;;;;;;;3.10;2.30;;;;;;;22.21;44.47;98251.47;4996251;28;20207;-72
2023/07/06 10:04:47;;;;;;;3.33;2.17;;;;;;;22.83;44.96;98248.53;4995962;28;20206;-72
2023/07/06 10:07:29;;;;;;;4.30;2.20;;;;;;;23.28;40.98;98243.25;4995756;28;20237;-72
2023/07/06 10:10:20;;;;;;;3.33;1.95;;;;;;;23.48;42.83;98242.91;4994712;28;20191;-73
2023/07/06 10:13:00;;;;;;;5.28;2.28;;;;;;;23.85;40.24;98242.81;4995657;28;20223;-72
2023/07/06 10:15:47;;;;;;;4.45;2.30;;;;;;;24.10;39.48;98244.28;4995642;28;20222;-72
2023/07/06 10:18:32;;;;;;;3.42;2.33;;;;;;;24.57;39.92;98249.28;4995766;28;20218;-72
2023/07/06 10:21:25;;;;;;;3.63;2.13;;;;;;;24.64;37.74;98246.97;4995769;28;20199;-72
2023/07/06 10:24:10;;;;;;;2.22;2.03;;;;;;;24.57;38.13;98246.56;4995626;28;20219;-72
2023/07/06 10:26:47;;;;;;;3.35;2.20;;;;;;;24.25;38.31;98244.75;4995802;28;20235;-72
2023/07/06 10:29:18;;;;;;;4.15;2.55;;;;;;;23.58;36.71;98241.94;4995580;28;20562;-72
2023/07/06 10:31:52;;;;;;;3.47;2.40;;;;;;;23.25;37.56;98240.34;4995556;28;20202;-72
2023/07/06 10:34:32;;;;;;;3.30;2.30;;;;;;;23.28;37.96;98242.44;4995960;28;20269;-72
2023/07/06 10:37:02;;;;;;;3.42;2.30;;;;;;;23.27;38.40;98244.38;4995039;28;20238;-72
2023/07/06 10:39:28;;;;;;;3.20;2.30;;;;;;;23.39;37.74;98246.63;4993987;28;20226;-72
2023/07/06 10:42:03;;;;;;;4.35;2.13;;;;;;;23.77;38.09;98251.66;4995094;28;20211;-72
2023/07/06 10:44:40;;;;;;;2.40;2.20;;;;;;;23.07;37.75;98246.56;4995117;28;20209;-72
2023/07/06 10:47:07;;;;;;;4.07;2.38;;;;;;;23.09;38.90;98255.19;4995077;28;20360;-72
2023/07/06 10:50:08;;;;;;;2.58;2.20;;;;;;;23.61;38.40;98246.78;4994207;28;20203;-72
2023/07/06 10:52:41;;;;;;;4.70;2.20;;;;;;;23.39;38.40;98243.91;4994887;28;20216;-72
2023/07/06 10:55:12;;;;;;;4.25;2.50;;;;;;;23.62;38.87;98243.78;4994945;28;20211;-72
2023/07/06 10:57:49;;;;;;;3.67;2.28;;;;;;;23.41;37.64;98241.69;4994758;28;20231;-72
2023/07/06 11:00:19;;;;;;;4.32;2.17;;;;;;;23.91;38.35;98243.53;4997798;28;20552;-72
2023/07/06 11:02:47;;;;;;;3.78;2.10;;;;;;;24.41;37.40;98245.25;4994916;28;20203;-73
2023/07/06 11:05:16;;;;;;;5.88;2.30;;;;;;;23.64;37.42;98246.16;4994785;28;20211;-72
2023/07/06 11:07:45;;;;;;;2.75;2.00;;;;;;;23.49;38.93;98235.59;4994584;28;20234;-72
2023/07/06 11:10:15;;;;;;;2.22;2.03;;;;;;;23.79;38.54;98245.91;4994474;28;20266;-72
2023/07/06 11:12:52;;;;;;;3.08;2.30;;;;;;;23.88;36.97;98250.34;4994718;28;20207;-72
2023/07/06 11:15:21;;;;;;;5.55;2.55;;;;;;;24.06;37.87;98240.56;4994533;28;20230;-72
2023/07/06 11:17:50;;;;;;;3.20;2.03;;;;;;;24.29;36.59;98242.28;4994192;28;20662;-72
2023/07/06 11:20:22;;;;;;;3.75;2.40;;;;;;;23.93;36.27;98236.69;4994644;28;20261;-72
2023/07/06 11:22:52;;;;;;;3.35;2.42;;;;;;;24.46;37.55;98240.53;4994418;28;20713;-72
2023/07/06 11:25:20;;;;;;;4.45;2.40;;;;;;;24.67;36.82;98239.03;4994432;28;20207;-73
2023/07/06 11:27:53;;;;;;;2.70;2.50;;;;;;;24.84;36.13;98233.78;4994085;28;20227;-72
2023/07/06 11:30:47;;;;;;;3.50;2.40;;;;;;;24.67;36.81;98239.03;4994785;28;20195;-72
2023/07/06 11:33:50;;;;;;;3.33;2.33;;;;;;;24.57;37.07;98228.38;4993125;28;20294;-72
2023/07/06 11:36:26;;;;;;;2.72;2.05;;;;;;;24.24;36.47;98237.72;4992519;28;20235;-72
2023/07/06 11:39:11;;;;;;;2.42;2.10;;;;;;;24.23;36.27;98238.84;4994180;28;20176;-72
2023/07/06 11:41:53;;;;;;;3.50;2.45;;;;;;;23.16;37.86;98248.28;4994276;28;20274;-72
2023/07/06 11:44:44;;;;;;;2.53;1.98;;;;;;;23.11;38.99;98242.16;4994068;28;20287;-72
2023/07/06 11:47:35;;;;;;;2.97;2.17;;;;;;;23.16;38.83;98236.66;4994089;28;20227;-72
2023/07/06 11:50:11;;;;;;;4.03;2.10;;;;;;;23.28;38.85;98242.44;4993440;28;20195;-74